Time;durP1;ratioP1;P1;durP2;ratioP2;P2;SDS_P1;SDS_P2;PMS_P1;PMS_P2;Temp;Humidity;BMP_temperature;BMP_pressure;BME280_temperature;BME280_humidity;BME280_pressure;Samples;Min_cycle;Max_cycle;Signal;HPM_P1;HPM_P2
2023/03/11 00:00:49;;;;;;;10.77;8.27;;;12.00;99.90;;;;;;5045476;28;20041;-72
2023/03/11 00:03:21;;;;;;;11.68;8.52;;;12.00;99.90;;;;;;5014656;28;20045;-72
2023/03/11 00:05:51;;;;;;;11.90;8.05;;;12.00;99.90;;;;;;5012762;28;20051;-73
2023/03/11 00:08:22;;;;;;;10.00;7.75;;;11.90;99.90;;;;;;5031427;28;20531;-73
2023/03/11 00:10:59;;;;;;;10.93;7.80;;;11.90;99.90;;;;;;5063532;28;20394;-75
2023/03/11 00:13:28;;;;;;;14.20;8.32;;;11.70;99.90;;;;;;5044443;28;20267;-75
2023/03/11 00:15:58;;;;;;;10.77;7.82;;;11.80;99.90;;;;;;5012569;28;20048;-74
2023/03/11 00:18:28;;;;;;;10.45;7.22;;;11.80;99.90;;;;;;5062648;28;20056;-74
2023/03/11 00:21:01;;;;;;;12.88;7.93;;;11.90;99.90;;;;;;5020842;28;20037;-74
2023/03/11 00:23:34;;;;;;;12.07;7.82;;;11.80;99.90;;;;;;5030645;28;20052;-75
2023/03/11 00:26:05;;;;;;;12.98;9.68;;;11.90;99.90;;;;;;5010604;28;20509;-75
2023/03/11 00:28:33;;;;;;;19.02;11.80;;;11.80;99.90;;;;;;5047298;28;20556;-75
2023/03/11 00:31:04;;;;;;;19.98;13.45;;;11.80;99.90;;;;;;5031134;28;20047;-75
2023/03/11 00:33:37;;;;;;;20.10;13.48;;;11.80;99.90;;;;;;5014839;28;20056;-75
2023/03/11 00:36:05;;;;;;;19.48;12.63;;;11.60;99.90;;;;;;5011109;28;20045;-76
2023/03/11 00:38:33;;;;;;;124.53;76.35;;;11.50;99.90;;;;;;5043954;28;20079;-73
2023/03/11 00:41:03;;;;;;;33.17;23.70;;;11.50;99.90;;;;;;5013309;28;20041;-74
2023/03/11 00:43:33;;;;;;;20.27;14.57;;;11.40;99.90;;;;;;5029851;28;20045;-72
2023/03/11 00:46:03;;;;;;;19.63;14.45;;;11.30;99.90;;;;;;5012003;28;20036;-74
2023/03/11 00:48:32;;;;;;;18.42;12.75;;;11.30;99.90;;;;;;5011307;28;20057;-73
2023/03/11 00:51:00;;;;;;;17.55;13.07;;;11.30;99.90;;;;;;5028451;28;20033;-74
2023/03/11 00:53:27;;;;;;;19.17;12.20;;;11.30;99.90;;;;;;5046134;28;20055;-72
2023/03/11 00:55:54;;;;;;;22.23;12.40;;;11.30;99.90;;;;;;5011200;28;20048;-74
2023/03/11 00:58:31;;;;;;;25.02;12.75;;;11.20;99.90;;;;;;5047928;28;20369;-73
2023/03/11 01:00:59;;;;;;;22.83;12.57;;;11.20;99.90;;;;;;5042384;28;20033;-73
2023/03/11 01:03:45;;;;;;;13.80;8.98;;;11.30;99.90;;;;;;5014217;28;20090;-73
2023/03/11 01:06:22;;;;;;;16.48;10.60;;;11.30;99.90;;;;;;5013869;28;20569;-73
2023/03/11 01:09:07;;;;;;;17.20;10.25;;;11.40;99.90;;;;;;5015219;28;20053;-72
2023/03/11 01:11:35;;;;;;;19.52;11.18;;;11.30;99.90;;;;;;5012449;28;20135;-73
2023/03/11 01:14:06;;;;;;;13.77;8.43;;;11.30;99.90;;;;;;5009082;28;20060;-73
2023/03/11 01:16:43;;;;;;;11.90;8.70;;;11.20;99.90;;;;;;5015297;28;20071;-73
2023/03/11 01:19:16;;;;;;;11.77;7.97;;;11.20;99.90;;;;;;5013317;28;20040;-74
2023/03/11 01:21:46;;;;;;;10.63;7.75;;;11.20;99.90;;;;;;5014134;28;20060;-71
2023/03/11 01:24:26;;;;;;;11.52;8.02;;;11.10;99.90;;;;;;5017247;28;20061;-72
2023/03/11 01:30:21;;;;;;;15.65;8.68;;;11.30;99.90;;;;;;4991742;28;20038;-73
2023/03/11 01:32:52;;;;;;;13.18;8.85;;;11.40;99.90;;;;;;4987981;28;20054;-74
2023/03/11 01:35:42;;;;;;;12.38;8.50;;;11.40;99.90;;;;;;4956020;28;20134;-74
2023/03/11 01:38:36;;;;;;;13.07;8.65;;;11.40;99.90;;;;;;4986754;28;20117;-74
2023/03/11 01:41:44;;;;;;;12.85;7.35;;;11.40;99.90;;;;;;4985190;28;20427;-73
2023/03/11 01:44:23;;;;;;;8.30;5.35;;;11.20;99.90;;;;;;5021860;22;20054;-74
2023/03/11 01:46:50;;;;;;;7.28;5.82;;;11.00;99.90;;;;;;4995044;28;20564;-74
2023/03/11 01:49:20;;;;;;;9.70;6.10;;;11.10;99.90;;;;;;4995439;28;20137;-74
2023/03/11 01:51:57;;;;;;;8.20;6.13;;;11.10;99.90;;;;;;5041691;22;20068;-74
2023/03/11 01:54:34;;;;;;;11.75;7.43;;;11.20;99.90;;;;;;5003148;28;20045;-72
2023/03/11 01:57:14;;;;;;;9.57;6.63;;;11.10;99.90;;;;;;5005384;28;20053;-71
2023/03/11 01:59:48;;;;;;;10.02;6.68;;;11.00;99.90;;;;;;5029554;23;20045;-72
2023/03/11 02:02:42;;;;;;;8.85;6.53;;;10.90;99.90;;;;;;5013245;28;20120;-71
2023/03/11 02:05:19;;;;;;;8.85;6.65;;;10.90;99.90;;;;;;5023353;28;20051;-73
2023/03/11 02:07:51;;;;;;;17.90;9.77;;;10.90;99.90;;;;;;5029180;28;20045;-73
2023/03/11 02:10:21;;;;;;;11.77;7.03;;;10.90;99.90;;;;;;5011717;28;20038;-72
2023/03/11 02:12:58;;;;;;;10.77;7.10;;;10.90;99.90;;;;;;5012092;23;20049;-73
2023/03/11 02:15:32;;;;;;;6.82;4.95;;;10.90;99.90;;;;;;4992206;28;20041;-75
2023/03/11 02:18:04;;;;;;;6.75;5.03;;;10.80;99.90;;;;;;5005768;28;20096;-73
2023/03/11 02:21:06;;;;;;;6.50;4.50;;;10.80;99.90;;;;;;4994616;28;20141;-73
2023/03/11 02:24:12;;;;;;;6.50;4.43;;;10.90;99.90;;;;;;5028405;28;20500;-73
2023/03/11 02:26:54;;;;;;;8.52;4.82;;;10.90;99.90;;;;;;5011224;28;20045;-74
2023/03/11 02:29:29;;;;;;;7.93;5.10;;;10.80;99.90;;;;;;5041947;28;20041;-75
2023/03/11 02:32:11;;;;;;;5.90;5.00;;;10.80;99.90;;;;;;5033942;28;20059;-73
2023/03/11 02:34:46;;;;;;;8.00;5.63;;;10.80;99.90;;;;;;5014910;28;20037;-73
2023/03/11 02:37:24;;;;;;;6.85;5.38;;;10.70;99.90;;;;;;5021660;28;20069;-73
2023/03/11 02:40:35;;;;;;;7.50;5.72;;;10.50;99.90;;;;;;5032480;28;20041;-73
2023/03/11 02:43:42;;;;;;;7.57;5.90;;;10.10;99.90;;;;;;5027146;28;20041;-74
2023/03/11 02:46:10;;;;;;;;;;;10.30;99.90;;;;;;5039431;28;20051;-75
2023/03/11 02:48:38;;;;;;;8.80;6.40;;;10.10;99.90;;;;;;5048619;28;19929;-74
2023/03/11 02:51:05;;;;;;;8.05;6.72;;;10.00;99.90;;;;;;5016844;28;20057;-73
2023/03/11 02:53:46;;;;;;;9.10;6.97;;;10.00;99.90;;;;;;5033250;28;20033;-73
2023/03/11 02:56:16;;;;;;;8.70;6.40;;;10.10;99.90;;;;;;5016399;28;20052;-74
2023/03/11 02:58:51;;;;;;;8.95;7.30;;;9.90;99.90;;;;;;5031779;28;20488;-73
2023/03/11 03:01:22;;;;;;;8.40;6.82;;;9.80;99.90;;;;;;5017240;28;20041;-72
2023/03/11 03:03:49;;;;;;;7.95;6.80;;;9.80;99.90;;;;;;5016494;28;20458;-73
2023/03/11 03:06:17;;;;;;;8.98;6.63;;;9.80;99.90;;;;;;5015877;28;20036;-73
2023/03/11 03:08:47;;;;;;;8.98;6.82;;;9.70;99.90;;;;;;5033466;28;20044;-74
2023/03/11 03:11:15;;;;;;;10.10;7.25;;;9.60;99.90;;;;;;5030115;28;20057;-73
2023/03/11 03:13:43;;;;;;;9.95;7.85;;;9.60;99.90;;;;;;5033119;28;20056;-73
2023/03/11 03:16:18;;;;;;;11.60;7.03;;;9.70;99.90;;;;;;5039097;28;20120;-73
2023/03/11 03:18:51;;;;;;;10.35;7.15;;;9.80;99.90;;;;;;5010774;28;20052;-73
2023/03/11 03:21:20;;;;;;;9.82;6.80;;;9.80;99.90;;;;;;5023262;28;20397;-75
2023/03/11 03:23:47;;;;;;;8.70;7.30;;;9.80;99.90;;;;;;5028195;28;20033;-74
2023/03/11 03:26:15;;;;;;;13.60;8.48;;;9.80;99.90;;;;;;5013917;28;20464;-73
2023/03/11 03:28:43;;;;;;;14.55;9.40;;;9.80;99.90;;;;;;5015971;28;20570;-73
2023/03/11 03:31:11;;;;;;;12.20;8.52;;;9.90;99.90;;;;;;5038827;28;20041;-74
2023/03/11 03:33:38;;;;;;;14.07;8.95;;;9.90;99.90;;;;;;5013640;28;20624;-74
2023/03/11 03:36:10;;;;;;;13.65;9.20;;;9.80;99.90;;;;;;5028540;28;20037;-75
2023/03/11 03:38:47;;;;;;;15.35;9.65;;;9.80;99.90;;;;;;5042204;28;20103;-73
2023/03/11 03:41:23;;;;;;;15.05;9.55;;;9.80;99.90;;;;;;5012935;28;20057;-74
2023/03/11 03:44:09;;;;;;;13.67;8.80;;;9.60;99.90;;;;;;5000105;28;20053;-73
2023/03/11 03:46:38;;;;;;;14.10;9.15;;;9.70;99.90;;;;;;5005123;28;20140;-73
2023/03/11 03:49:05;;;;;;;12.68;8.55;;;9.70;99.90;;;;;;5047391;28;20037;-74
2023/03/11 03:51:33;;;;;;;13.27;9.90;;;9.50;99.90;;;;;;5037111;28;20037;-74
2023/03/11 03:54:10;;;;;;;12.48;8.75;;;9.60;99.90;;;;;;5047095;28;20036;-73
2023/03/11 03:56:40;;;;;;;14.65;9.80;;;9.70;99.90;;;;;;5014983;28;20061;-73
2023/03/11 03:59:07;;;;;;;14.32;10.15;;;9.60;99.90;;;;;;5029666;28;20124;-75
2023/03/11 04:01:34;;;;;;;12.55;9.63;;;9.60;99.90;;;;;;5031889;28;20420;-74
2023/03/11 04:04:02;;;;;;;16.23;11.45;;;9.50;99.90;;;;;;5013228;28;20204;-73
2023/03/11 04:06:29;;;;;;;21.27;12.52;;;9.60;99.90;;;;;;5009705;28;20045;-74
2023/03/11 04:09:01;;;;;;;17.60;12.38;;;9.60;99.90;;;;;;5048365;28;20051;-73
2023/03/11 04:11:31;;;;;;;17.50;12.70;;;9.60;99.90;;;;;;5018453;28;20048;-71
2023/03/11 04:14:01;;;;;;;28.20;15.73;;;9.70;99.90;;;;;;5031186;28;20421;-72
2023/03/11 04:16:29;;;;;;;28.00;16.20;;;9.80;99.90;;;;;;5022022;28;20040;-75
2023/03/11 04:18:56;;;;;;;25.83;16.00;;;9.70;99.90;;;;;;5014198;28;20106;-74
2023/03/11 04:21:24;;;;;;;32.70;17.40;;;9.70;99.90;;;;;;5040255;28;20043;-74
2023/03/11 04:23:51;;;;;;;26.13;16.30;;;9.70;99.90;;;;;;5040411;28;20448;-73
2023/03/11 04:26:21;;;;;;;26.45;16.05;;;9.60;99.90;;;;;;5040284;28;20037;-73
2023/03/11 04:28:50;;;;;;;33.45;15.25;;;9.50;99.90;;;;;;5015806;28;20056;-73
2023/03/11 04:31:17;;;;;;;28.42;14.48;;;9.30;99.90;;;;;;5031660;28;20036;-71
2023/03/11 04:33:50;;;;;;;33.42;14.80;;;9.40;99.90;;;;;;5040516;28;20156;-74
2023/03/11 04:36:23;;;;;;;42.75;16.23;;;9.40;99.90;;;;;;5003957;23;20473;-75
2023/03/11 04:38:54;;;;;;;50.63;17.33;;;9.20;99.90;;;;;;5027473;28;20037;-74
2023/03/11 04:41:21;;;;;;;29.17;14.98;;;9.00;99.90;;;;;;5028251;28;20099;-73
2023/03/11 04:44:14;;;;;;;46.25;16.08;;;9.00;99.90;;;;;;4994379;28;20393;-73
2023/03/11 04:46:49;;;;;;;33.63;16.00;;;9.20;99.90;;;;;;5040355;28;20695;-74
2023/03/11 04:49:18;;;;;;;31.08;16.15;;;9.30;99.90;;;;;;5010575;28;20073;-72
2023/03/11 04:51:54;;;;;;;28.90;15.77;;;9.40;99.90;;;;;;5012089;28;20045;-72
2023/03/11 04:54:21;;;;;;;26.45;15.18;;;9.50;99.90;;;;;;5025573;28;20041;-72
2023/03/11 04:56:48;;;;;;;25.67;15.07;;;9.60;99.90;;;;;;5027233;28;20037;-71
2023/03/11 04:59:26;;;;;;;25.83;15.07;;;9.60;99.90;;;;;;5009167;28;20123;-72
2023/03/11 05:01:58;;;;;;;24.48;14.80;;;9.70;99.90;;;;;;5011255;28;20034;-73
2023/03/11 05:04:26;;;;;;;27.30;14.98;;;9.80;99.90;;;;;;5024571;28;20575;-73
2023/03/11 05:06:53;;;;;;;25.88;14.82;;;9.80;99.90;;;;;;5028858;28;20040;-74
2023/03/11 05:09:24;;;;;;;29.48;14.73;;;9.90;99.90;;;;;;5024743;28;20072;-72
2023/03/11 05:11:55;;;;;;;26.95;15.02;;;9.80;99.90;;;;;;5010936;28;20041;-72
2023/03/11 05:14:24;;;;;;;29.75;15.15;;;9.90;99.90;;;;;;5026002;28;20045;-73
2023/03/11 05:16:53;;;;;;;24.75;14.85;;;10.00;99.90;;;;;;5010963;28;20128;-73
2023/03/11 05:19:35;;;;;;;25.35;14.40;;;10.10;99.90;;;;;;5010359;28;20038;-73
2023/03/11 05:22:03;;;;;;;22.52;13.95;;;10.20;99.90;;;;;;5024428;28;20544;-72
2023/03/11 05:24:33;;;;;;;21.83;14.38;;;10.30;99.90;;;;;;5025352;28;20053;-71
2023/03/11 05:27:01;;;;;;;25.98;14.45;;;10.20;99.90;;;;;;5027583;28;20511;-71
2023/03/11 05:29:29;;;;;;;23.75;14.82;;;10.20;99.90;;;;;;5001965;28;20046;-74
2023/03/11 05:32:07;;;;;;;22.50;14.00;;;10.10;99.90;;;;;;5010422;28;20497;-73
2023/03/11 05:34:34;;;;;;;24.45;13.82;;;10.10;99.90;;;;;;5007473;28;20037;-72
2023/03/11 05:37:01;;;;;;;27.15;15.85;;;10.10;99.90;;;;;;5009141;28;20033;-73
2023/03/11 05:39:30;;;;;;;22.45;13.80;;;9.90;99.90;;;;;;5027834;28;20041;-75
2023/03/11 05:41:57;;;;;;;26.17;15.32;;;10.00;99.90;;;;;;5011453;28;20124;-72
2023/03/11 05:44:29;;;;;;;31.20;16.15;;;10.10;99.90;;;;;;5025081;28;20037;-73
2023/03/11 05:47:03;;;;;;;24.75;14.90;;;10.20;99.90;;;;;;5010198;28;20042;-74
2023/03/11 05:49:33;;;;;;;27.42;15.15;;;10.20;99.90;;;;;;5010893;28;20136;-74
2023/03/11 05:52:03;;;;;;;24.10;15.43;;;10.10;99.90;;;;;;5001548;28;20046;-75
2023/03/11 05:54:30;;;;;;;26.08;15.60;;;10.30;99.90;;;;;;5024649;28;20568;-74
2023/03/11 05:57:01;;;;;;;28.45;15.00;;;10.50;99.90;;;;;;5025663;28;20044;-74
2023/03/11 05:59:31;;;;;;;26.35;16.17;;;10.70;99.90;;;;;;5013849;28;20049;-75
2023/03/11 06:02:01;;;;;;;28.90;16.50;;;10.80;99.90;;;;;;5033965;28;20402;-74
2023/03/11 06:04:31;;;;;;;23.80;14.88;;;10.90;99.90;;;;;;5013304;28;20120;-74
2023/03/11 06:07:04;;;;;;;30.75;16.10;;;11.00;99.90;;;;;;5006685;28;20037;-74
2023/03/11 06:09:34;;;;;;;27.30;15.57;;;10.90;99.90;;;;;;5012204;28;20060;-73
2023/03/11 06:12:05;;;;;;;28.10;16.35;;;10.90;99.90;;;;;;5013939;28;20053;-74
2023/03/11 06:14:32;;;;;;;34.00;15.35;;;10.70;99.90;;;;;;5002720;28;20041;-74
2023/03/11 06:16:59;;;;;;;27.63;16.15;;;10.60;99.90;;;;;;5013630;28;20381;-73
2023/03/11 06:19:28;;;;;;;27.75;16.08;;;10.80;99.90;;;;;;5011650;28;20053;-73
2023/03/11 06:21:58;;;;;;;32.60;18.23;;;10.90;99.90;;;;;;5012501;28;20508;-74
2023/03/11 06:24:26;;;;;;;27.80;17.48;;;11.00;99.90;;;;;;4996978;28;20046;-73
2023/03/11 06:26:53;;;;;;;29.85;17.10;;;11.00;99.90;;;;;;5004915;28;20071;-75
2023/03/11 06:29:23;;;;;;;27.55;17.55;;;10.90;99.90;;;;;;5013859;28;20053;-73
2023/03/11 06:31:57;;;;;;;28.55;17.08;;;11.00;99.90;;;;;;4996721;28;20041;-75
2023/03/11 06:34:25;;;;;;;31.17;18.35;;;11.10;99.90;;;;;;5020713;28;20136;-73
2023/03/11 06:36:56;;;;;;;29.15;17.88;;;11.10;99.90;;;;;;5003814;28;21484;-75
2023/03/11 06:39:25;;;;;;;33.50;18.33;;;10.90;99.90;;;;;;5002472;28;20038;-75
2023/03/11 06:41:56;;;;;;;33.42;19.08;;;11.00;99.90;;;;;;5012101;28;20132;-74
2023/03/11 06:44:26;;;;;;;36.80;19.80;;;11.20;99.90;;;;;;5026350;28;20053;-74
2023/03/11 06:47:04;;;;;;;35.50;19.40;;;11.20;99.90;;;;;;5012759;28;20053;-74
2023/03/11 06:49:31;;;;;;;31.17;18.73;;;11.20;99.90;;;;;;5012994;28;20490;-75
2023/03/11 06:52:02;;;;;;;31.90;19.17;;;11.10;99.90;;;;;;5013536;28;20367;-74
2023/03/11 06:54:32;;;;;;;31.40;18.45;;;11.20;99.90;;;;;;5028898;28;20082;-74
2023/03/11 06:57:05;;;;;;;30.03;18.60;;;11.20;99.90;;;;;;5004153;28;20132;-75
2023/03/11 06:59:36;;;;;;;34.10;19.00;;;11.30;99.90;;;;;;4996982;28;20042;-74
2023/03/11 07:02:04;;;;;;;29.25;17.65;;;11.50;99.90;;;;;;4997576;28;20049;-73
2023/03/11 07:04:32;;;;;;;32.90;18.70;;;11.70;99.90;;;;;;5010925;28;20044;-74
2023/03/11 07:06:59;;;;;;;31.52;18.40;;;11.90;99.90;;;;;;5029695;28;20042;-74
2023/03/11 07:09:28;;;;;;;30.50;18.70;;;11.70;99.90;;;;;;5027892;28;20497;-75
2023/03/11 07:11:58;;;;;;;36.35;19.50;;;11.70;99.90;;;;;;5013683;28;20049;-75
2023/03/11 07:14:25;;;;;;;31.38;18.45;;;11.80;99.90;;;;;;5028529;28;20481;-74
2023/03/11 07:16:53;;;;;;;31.77;18.75;;;11.80;99.90;;;;;;5030985;28;20035;-74
2023/03/11 07:19:23;;;;;;;31.60;17.92;;;11.70;99.90;;;;;;5003290;28;20053;-74
2023/03/11 07:21:51;;;;;;;32.35;18.33;;;11.70;99.90;;;;;;5029034;28;20048;-75
2023/03/11 07:24:27;;;;;;;28.55;17.63;;;11.80;99.90;;;;;;5028855;28;20084;-75
2023/03/11 07:26:57;;;;;;;31.75;17.17;;;11.80;99.90;;;;;;5012839;28;20045;-74
2023/03/11 07:29:31;;;;;;;27.13;16.35;;;11.80;99.90;;;;;;5012286;28;20047;-74
2023/03/11 07:31:58;;;;;;;29.08;17.25;;;11.70;99.90;;;;;;4995118;28;20136;-75
2023/03/11 07:34:26;;;;;;;26.90;17.08;;;11.70;99.90;;;;;;5011674;28;20044;-74
2023/03/11 07:36:53;;;;;;;25.77;16.17;;;11.70;99.90;;;;;;4993300;28;20138;-74
2023/03/11 07:39:26;;;;;;;23.58;14.70;;;11.70;99.90;;;;;;4977366;28;20469;-75
2023/03/11 07:41:54;;;;;;;27.85;15.82;;;11.70;99.90;;;;;;4980293;28;20417;-74
2023/03/11 07:44:24;;;;;;;23.98;15.93;;;11.60;99.90;;;;;;4970282;28;20042;-75
2023/03/11 07:46:51;;;;;;;30.15;17.15;;;11.60;99.90;;;;;;5010445;28;20410;-74
2023/03/11 07:49:18;;;;;;;29.95;18.33;;;11.60;99.90;;;;;;5010203;28;20048;-74
2023/03/11 07:51:48;;;;;;;31.70;19.17;;;11.50;99.90;;;;;;5009114;28;20034;-74
2023/03/11 07:54:21;;;;;;;31.50;17.55;;;10.90;99.90;;;;;;4974618;28;20398;-73
2023/03/11 07:56:51;;;;;;;24.52;14.75;;;10.50;99.90;;;;;;4984099;28;20042;-74
2023/03/11 07:59:20;;;;;;;29.40;15.30;;;10.40;99.90;;;;;;5061051;23;20483;-73
2023/03/11 08:01:47;;;;;;;27.45;15.50;;;10.40;99.90;;;;;;5077043;28;20036;-73
2023/03/11 08:04:15;;;;;;;29.55;15.77;;;10.60;99.90;;;;;;5074879;28;20032;-73
2023/03/11 08:06:45;;;;;;;26.42;15.27;;;10.80;99.90;;;;;;5044244;28;20101;-75
2023/03/11 08:09:20;;;;;;;26.75;15.65;;;10.90;99.90;;;;;;5056914;28;20072;-74
2023/03/11 08:11:50;;;;;;;28.48;15.10;;;11.20;99.90;;;;;;5041936;28;20048;-72
2023/03/11 08:14:20;;;;;;;26.38;15.75;;;11.70;99.90;;;;;;5057557;28;20056;-74
2023/03/11 08:16:48;;;;;;;22.92;15.02;;;12.00;99.90;;;;;;5045391;28;20045;-74
2023/03/11 08:19:21;;;;;;;31.90;16.48;;;12.30;99.90;;;;;;5055152;28;20033;-73
2023/03/11 08:21:51;;;;;;;29.60;15.85;;;12.20;99.90;;;;;;5039391;28;20054;-73
2023/03/11 08:24:25;;;;;;;26.42;16.50;;;12.50;99.90;;;;;;5043406;28;20156;-76
2023/03/11 08:27:06;;;;;;;28.63;15.75;;;12.80;99.90;;;;;;5055482;28;20117;-74
2023/03/11 08:29:35;;;;;;;31.52;17.42;;;13.00;99.90;;;;;;5060857;28;20402;-72
2023/03/11 08:32:03;;;;;;;31.77;16.30;;;13.10;99.90;;;;;;5089901;28;20118;-73
2023/03/11 08:34:31;;;;;;;26.20;16.90;;;12.80;99.90;;;;;;5094315;28;20046;-75
2023/03/11 08:36:59;;;;;;;29.65;16.45;;;12.70;99.90;;;;;;5078730;28;20465;-73
2023/03/11 08:39:28;;;;;;;32.05;15.77;;;12.80;99.90;;;;;;5078019;28;20050;-73
2023/03/11 08:41:55;;;;;;;26.95;15.25;;;13.20;99.90;;;;;;5061000;28;20109;-73
2023/03/11 08:44:23;;;;;;;29.15;15.65;;;13.30;99.90;;;;;;5055970;28;20724;-74
2023/03/11 08:46:52;;;;;;;25.58;15.10;;;13.10;99.90;;;;;;5065290;28;20048;-74
2023/03/11 08:49:23;;;;;;;26.83;15.68;;;13.20;99.90;;;;;;5062517;28;20044;-74
2023/03/11 08:51:50;;;;;;;24.52;14.48;;;13.40;99.90;;;;;;5061386;28;20501;-71
2023/03/11 08:54:22;;;;;;;23.85;14.70;;;13.40;99.90;;;;;;5078394;28;20040;-74
2023/03/11 08:56:57;;;;;;;29.25;16.13;;;13.70;99.90;;;;;;5061970;23;20060;-75
2023/03/11 08:59:28;;;;;;;25.02;14.38;;;14.10;99.90;;;;;;5035467;28;20040;-74
2023/03/11 09:01:56;;;;;;;24.02;13.55;;;14.40;99.90;;;;;;5065767;28;20045;-71
2023/03/11 09:04:23;;;;;;;43.42;25.52;;;14.20;99.90;;;;;;5067177;28;20051;-72
2023/03/11 09:06:50;;;;;;;137.60;83.38;;;14.10;99.90;;;;;;5063560;28;20044;-73
2023/03/11 09:09:20;;;;;;;38.50;25.00;;;14.20;99.90;;;;;;5066418;28;20110;-71
2023/03/11 09:11:55;;;;;;;23.83;13.57;;;14.30;99.90;;;;;;5067501;28;20427;-75
2023/03/11 09:14:34;;;;;;;22.50;13.15;;;14.50;99.90;;;;;;5047296;28;20045;-72
2023/03/11 09:17:03;;;;;;;39.85;22.85;;;14.70;99.90;;;;;;5033648;28;20144;-69
2023/03/11 09:19:34;;;;;;;;;;;14.80;99.90;;;;;;5032449;28;20048;-71
2023/03/11 09:22:02;;;;;;;58.03;36.90;;;15.10;99.90;;;;;;5063528;28;20387;-71
2023/03/11 09:24:39;;;;;;;100.47;64.82;;;15.10;99.90;;;;;;5065571;28;20032;-74
2023/03/11 09:27:11;;;;;;;19.95;15.25;;;14.80;99.90;;;;;;5064761;23;20736;-72
2023/03/11 09:29:40;;;;;;;19.08;12.05;;;14.60;99.90;;;;;;5048903;28;20049;-73
2023/03/11 09:32:12;;;;;;;19.95;12.88;;;14.30;99.90;;;;;;5064362;28;20044;-75
2023/03/11 09:34:40;;;;;;;20.77;13.02;;;14.40;99.90;;;;;;5062559;28;20051;-75
2023/03/11 09:37:09;;;;;;;18.52;11.23;;;14.70;99.90;;;;;;5064351;28;20048;-79
2023/03/11 09:39:43;;;;;;;13.10;9.82;;;14.90;99.90;;;;;;5067968;28;20049;-74
2023/03/11 09:42:24;;;;;;;13.25;9.05;;;14.90;99.90;;;;;;5048935;28;20052;-74
2023/03/11 09:45:46;;;;;;;12.23;8.93;;;14.70;99.90;;;;;;5042649;23;20060;-75
2023/03/11 09:49:01;;;;;;;11.32;8.88;;;14.90;99.90;;;;;;5042032;28;20049;-75
2023/03/11 09:52:09;;;;;;;12.45;8.98;;;15.70;99.90;;;;;;5012887;28;20190;-76
2023/03/11 09:54:41;;;;;;;9.25;6.82;;;15.70;99.90;;;;;;5038994;28;20053;-75
2023/03/11 09:57:21;;;;;;;9.63;6.43;;;15.70;99.90;;;;;;5034316;28;20068;-77
2023/03/11 09:59:57;;;;;;;11.23;7.28;;;15.80;99.90;;;;;;5030804;28;20180;-77
2023/03/11 10:02:36;;;;;;;10.80;7.43;;;16.10;99.90;;;;;;5055097;28;20524;-76
2023/03/11 10:05:33;;;;;;;10.97;7.87;;;16.00;99.90;;;;;;5047486;28;20512;-76
2023/03/11 10:08:36;;;;;;;11.45;7.10;;;15.90;99.90;;;;;;5036487;23;20040;-74
2023/03/11 10:11:54;;;;;;;9.35;6.25;;;16.10;99.90;;;;;;5034125;28;20407;-77
2023/03/11 10:14:24;;;;;;;9.15;5.85;;;16.00;99.90;;;;;;5033213;28;20049;-75
2023/03/11 10:17:27;;;;;;;9.88;6.28;;;15.80;99.90;;;;;;5013354;28;20052;-74
2023/03/11 10:20:13;;;;;;;10.02;6.60;;;15.70;99.90;;;;;;5007993;28;20044;-73
2023/03/11 10:22:54;;;;;;;11.57;7.03;;;15.70;99.90;;;;;;5016340;28;20141;-77
2023/03/11 10:25:44;;;;;;;13.57;7.90;;;15.80;99.90;;;;;;5046313;28;20033;-77
2023/03/11 10:28:34;;;;;;;10.57;7.63;;;15.60;99.90;;;;;;5030086;28;20048;-75
2023/03/11 10:31:31;;;;;;;50.88;34.30;;;15.60;99.90;;;;;;5029834;28;20088;-75
2023/03/11 10:34:01;;;;;;;72.82;50.40;;;15.70;99.90;;;;;;5001833;28;20052;-75
2023/03/11 10:36:52;;;;;;;14.82;10.88;;;15.60;99.90;;;;;;5016974;28;20044;-73
2023/03/11 10:39:20;;;;;;;11.90;8.40;;;15.90;99.90;;;;;;5019939;28;20063;-73
2023/03/11 10:42:02;;;;;;;58.45;36.15;;;15.90;99.90;;;;;;5013348;28;20058;-73
2023/03/11 10:44:30;;;;;;;90.82;62.42;;;16.10;99.90;;;;;;5003229;28;20048;-72
2023/03/11 10:47:01;;;;;;;10.48;8.27;;;16.50;99.90;;;;;;5029973;28;20038;-73
2023/03/11 10:49:36;;;;;;;8.05;5.00;;;16.20;99.90;;;;;;5016840;28;20045;-75
2023/03/11 10:52:05;;;;;;;7.07;4.90;;;16.00;99.90;;;;;;5026942;28;20042;-75
2023/03/11 10:54:45;;;;;;;;;;;15.90;99.90;;;;;;5028371;28;20046;-75
2023/03/11 10:57:28;;;;;;;8.52;4.50;;;15.60;99.90;;;;;;5031501;28;20296;-75
2023/03/11 11:00:30;;;;;;;8.27;5.00;;;15.30;99.90;;;;;;5033904;28;20140;-77
2023/03/11 11:03:22;;;;;;;10.98;5.28;;;15.20;99.90;;;;;;4996968;28;20053;-73
2023/03/11 11:06:24;;;;;;;9.10;4.63;;;15.30;99.90;;;;;;4988841;28;20045;-76
2023/03/11 11:09:21;;;;;;;7.35;4.15;;;15.30;99.90;;;;;;4990229;28;20080;-76
2023/03/11 11:12:14;;;;;;;8.73;4.68;;;15.30;99.90;;;;;;4975836;28;20124;-76
2023/03/11 11:14:51;;;;;;;7.05;4.07;;;15.40;99.90;;;;;;5008349;28;20045;-74
2023/03/11 11:17:25;;;;;;;5.65;3.80;;;15.50;99.90;;;;;;5005898;28;20056;-76
2023/03/11 11:20:12;;;;;;;7.18;4.20;;;15.70;99.90;;;;;;4996617;28;20053;-76
2023/03/11 11:22:55;;;;;;;6.70;4.13;;;16.00;99.90;;;;;;5006906;28;20054;-75
2023/03/11 11:25:55;;;;;;;7.10;4.82;;;16.90;99.80;;;;;;4989508;28;20065;-77
2023/03/11 11:28:24;;;;;;;7.53;4.15;;;16.70;99.90;;;;;;5029796;28;20049;-76
2023/03/11 11:31:24;;;;;;;8.43;4.80;;;16.50;99.90;;;;;;5030964;28;20436;-76
2023/03/11 11:33:54;;;;;;;22.35;12.88;;;16.30;99.90;;;;;;5026055;28;20120;-75
2023/03/11 11:36:34;;;;;;;42.42;25.80;;;16.30;99.90;;;;;;5006101;28;20077;-79
2023/03/11 11:39:09;;;;;;;18.00;12.80;;;16.40;99.90;;;;;;5021239;28;20064;-75
2023/03/11 11:41:44;;;;;;;9.02;5.35;;;16.30;99.90;;;;;;5014281;28;20045;-76
2023/03/11 11:44:21;;;;;;;6.82;3.90;;;15.90;99.90;;;;;;5014464;28;20223;-78
2023/03/11 11:46:55;;;;;;;5.78;3.03;;;15.70;99.90;;;;;;5031743;28;20041;-79
2023/03/11 11:49:33;;;;;;;5.95;2.90;;;15.70;99.90;;;;;;5003423;28;20037;-75
2023/03/11 11:52:21;;;;;;;8.40;3.75;;;15.80;99.90;;;;;;5032182;28;20038;-74
2023/03/11 11:55:03;;;;;;;8.20;4.40;;;15.90;99.90;;;;;;5018686;28;20144;-76
2023/03/11 11:57:31;;;;;;;6.70;3.50;;;16.10;99.90;;;;;;4995613;28;20428;-75
2023/03/11 12:00:04;;;;;;;8.65;4.07;;;16.10;99.90;;;;;;5003057;28;20059;-75
2023/03/11 12:02:43;;;;;;;6.45;3.90;;;16.00;99.90;;;;;;5013787;28;20087;-75
2023/03/11 12:05:22;;;;;;;7.13;4.28;;;16.00;99.90;;;;;;5043965;28;20041;-74
2023/03/11 12:08:14;;;;;;;7.32;4.38;;;15.90;99.90;;;;;;5028202;28;20073;-72
2023/03/11 12:10:58;;;;;;;8.45;4.70;;;15.90;99.90;;;;;;5028052;28;20584;-75
2023/03/11 12:14:00;;;;;;;7.85;5.05;;;15.70;99.90;;;;;;5012660;28;20052;-77
2023/03/11 12:16:48;;;;;;;7.65;4.38;;;15.80;99.90;;;;;;5001491;28;20056;-73
2023/03/11 12:19:25;;;;;;;8.02;4.43;;;15.90;99.90;;;;;;5041466;28;20145;-73
2023/03/11 12:22:10;;;;;;;30.45;20.60;;;15.90;99.90;;;;;;5027905;28;20044;-71
2023/03/11 12:25:00;;;;;;;89.22;56.85;;;16.00;99.90;;;;;;5026925;28;20457;-72
2023/03/11 12:28:08;;;;;;;26.17;17.52;;;16.10;99.90;;;;;;5034545;23;20049;-78
2023/03/11 12:30:42;;;;;;;14.15;8.57;;;16.10;99.90;;;;;;5032504;28;20369;-77
2023/03/11 12:33:38;;;;;;;8.93;5.55;;;16.00;99.90;;;;;;5041456;28;20041;-76
2023/03/11 12:36:30;;;;;;;8.10;4.78;;;16.00;99.90;;;;;;5038548;28;20049;-75
2023/03/11 12:39:00;;;;;;;7.57;4.57;;;16.10;99.90;;;;;;5028492;28;20044;-77
2023/03/11 12:41:32;;;;;;;10.25;4.68;;;16.10;99.90;;;;;;5043734;28;20144;-75
2023/03/11 12:44:28;;;;;;;7.93;4.72;;;16.00;99.90;;;;;;5040475;23;20377;-74
2023/03/11 12:46:57;;;;;;;8.65;4.82;;;16.00;99.90;;;;;;5053505;28;20036;-74
2023/03/11 12:49:39;;;;;;;8.15;4.57;;;16.00;99.90;;;;;;5039664;28;20036;-76
2023/03/11 12:52:12;;;;;;;7.95;4.63;;;16.20;99.90;;;;;;5039488;28;20048;-76
2023/03/11 12:54:45;;;;;;;7.35;4.60;;;16.80;99.90;;;;;;5042175;28;20130;-75
2023/03/11 12:57:16;;;;;;;9.82;5.07;;;18.30;99.90;;;;;;5047176;28;20067;-75
2023/03/11 13:00:21;;;;;;;8.60;4.75;;;18.60;99.90;;;;;;5058927;28;20031;-78
2023/03/11 13:03:32;;;;;;;7.63;5.05;;;19.10;99.10;;;;;;5038963;28;20147;-76
2023/03/11 13:06:18;;;;;;;12.57;5.00;;;18.40;99.30;;;;;;5057123;28;20039;-76
2023/03/11 13:08:53;;;;;;;7.60;3.80;;;18.10;99.90;;;;;;5073087;28;20135;-74
2023/03/11 13:12:01;;;;;;;8.63;4.25;;;18.10;99.50;;;;;;5050436;28;20096;-74
2023/03/11 13:14:36;;;;;;;7.63;4.30;;;18.00;99.10;;;;;;5046162;28;20418;-75
2023/03/11 13:17:24;;;;;;;9.35;4.50;;;17.70;99.30;;;;;;5056110;28;20058;-75
2023/03/11 13:19:57;;;;;;;7.30;4.65;;;17.60;99.90;;;;;;5056567;28;20419;-75